LEZL/SVQ METAR and TAF weather

Enter ICAO airport designator
Station Type Date Time Source
LEZL METAR 2020/09/26 23:30 UTC NOAA

LEZL 262330Z AUTO 34006KT CAVOK 22/07 Q1017


Station Type Date Time Source
LEZL Decoded METAR 2020/09/26 23:30 UTC NOAA

Sevilla / San Pablo, Spain (LEZL) 37-25N 005-54W 31M
Sep 26, 2020 - 07:30 PM EDT / 2020.09.26 2330 UTC
Wind: from the NNW (340 degrees) at 7 MPH (6 KT):0
Visibility: greater than 7 mile(s):0
Temperature: 71 F (22 C)
Dew Point: 44 F (7 C)
Relative Humidity: 37%
Pressure (altimeter): 30.03 in. Hg (1017 hPa)
ob: LEZL 262330Z AUTO 34006KT CAVOK 22/07 Q1017
cycle: 23

Station Type Date Time Source
LEZL TAF 2020/09/26 21:27 UTC NOAA

TAF LEZL 262000Z 2621/2721 34004KT CAVOK TX29/2715Z TN15/2706Z

Example: see airport list